sensor_id;sensor_type;location;lat;lon;timestamp;P1;durP1;ratioP1;P2;durP2;ratioP2
4642;SDS011;2334;48.710;9.622;2024-01-15T00:01:50;41.13;;;13.30;;
4642;SDS011;2334;48.710;9.622;2024-01-15T00:04:17;33.87;;;13.27;;
4642;SDS011;2334;48.710;9.622;2024-01-15T00:06:44;25.13;;;12.40;;
4642;SDS011;2334;48.710;9.622;2024-01-15T00:09:11;45.37;;;14.50;;
4642;SDS011;2334;48.710;9.622;2024-01-15T00:11:38;36.43;;;13.07;;
4642;SDS011;2334;48.710;9.622;2024-01-15T00:14:05;27.23;;;10.57;;
4642;SDS011;2334;48.710;9.622;2024-01-15T00:16:31;27.83;;;12.77;;
4642;SDS011;2334;48.710;9.622;2024-01-15T00:19:00;29.63;;;13.13;;
4642;SDS011;2334;48.710;9.622;2024-01-15T00:21:27;30.90;;;12.50;;
4642;SDS011;2334;48.710;9.622;2024-01-15T00:23:54;55.00;;;14.30;;
4642;SDS011;2334;48.710;9.622;2024-01-15T00:26:21;42.37;;;12.50;;
4642;SDS011;2334;48.710;9.622;2024-01-15T00:28:48;32.37;;;12.93;;
4642;SDS011;2334;48.710;9.622;2024-01-15T00:31:15;31.70;;;12.33;;
4642;SDS011;2334;48.710;9.622;2024-01-15T00:33:42;30.43;;;11.63;;
4642;SDS011;2334;48.710;9.622;2024-01-15T00:36:11;37.53;;;12.80;;
4642;SDS011;2334;48.710;9.622;2024-01-15T00:38:39;42.97;;;12.37;;
4642;SDS011;2334;48.710;9.622;2024-01-15T00:41:06;34.10;;;12.30;;
4642;SDS011;2334;48.710;9.622;2024-01-15T00:43:33;43.63;;;14.13;;
4642;SDS011;2334;48.710;9.622;2024-01-15T00:46:01;57.83;;;15.17;;
4642;SDS011;2334;48.710;9.622;2024-01-15T00:48:28;36.43;;;11.73;;
4642;SDS011;2334;48.710;9.622;2024-01-15T00:50:55;35.23;;;12.67;;
4642;SDS011;2334;48.710;9.622;2024-01-15T00:53:23;29.90;;;11.20;;
4642;SDS011;2334;48.710;9.622;2024-01-15T00:55:51;30.90;;;11.77;;
4642;SDS011;2334;48.710;9.622;2024-01-15T00:58:18;36.40;;;12.40;;
4642;SDS011;2334;48.710;9.622;2024-01-15T01:00:45;32.40;;;11.93;;
4642;SDS011;2334;48.710;9.622;2024-01-15T01:03:12;36.33;;;12.57;;
4642;SDS011;2334;48.710;9.622;2024-01-15T01:05:39;40.03;;;14.20;;
4642;SDS011;2334;48.710;9.622;2024-01-15T01:08:06;32.40;;;13.00;;
4642;SDS011;2334;48.710;9.622;2024-01-15T01:10:34;37.43;;;14.77;;
4642;SDS011;2334;48.710;9.622;2024-01-15T01:13:01;37.50;;;12.73;;
4642;SDS011;2334;48.710;9.622;2024-01-15T01:15:28;33.03;;;12.47;;
4642;SDS011;2334;48.710;9.622;2024-01-15T01:17:55;32.20;;;12.67;;
4642;SDS011;2334;48.710;9.622;2024-01-15T01:20:21;34.83;;;11.97;;
4642;SDS011;2334;48.710;9.622;2024-01-15T01:22:48;33.50;;;13.40;;
4642;SDS011;2334;48.710;9.622;2024-01-15T01:25:15;38.13;;;12.90;;
4642;SDS011;2334;48.710;9.622;2024-01-15T01:27:43;37.60;;;13.10;;
4642;SDS011;2334;48.710;9.622;2024-01-15T01:30:10;36.43;;;14.10;;
4642;SDS011;2334;48.710;9.622;2024-01-15T01:32:37;49.13;;;15.30;;
4642;SDS011;2334;48.710;9.622;2024-01-15T01:35:04;34.00;;;13.37;;
4642;SDS011;2334;48.710;9.622;2024-01-15T01:37:31;33.77;;;12.40;;
4642;SDS011;2334;48.710;9.622;2024-01-15T01:39:59;28.93;;;11.23;;
4642;SDS011;2334;48.710;9.622;2024-01-15T01:42:26;38.63;;;12.30;;
4642;SDS011;2334;48.710;9.622;2024-01-15T01:44:54;24.40;;;10.23;;
4642;SDS011;2334;48.710;9.622;2024-01-15T01:47:21;30.17;;;12.33;;
4642;SDS011;2334;48.710;9.622;2024-01-15T01:49:48;32.07;;;11.83;;
4642;SDS011;2334;48.710;9.622;2024-01-15T01:52:15;31.57;;;13.13;;
4642;SDS011;2334;48.710;9.622;2024-01-15T01:54:42;35.40;;;11.87;;
4642;SDS011;2334;48.710;9.622;2024-01-15T01:57:09;30.00;;;10.97;;
4642;SDS011;2334;48.710;9.622;2024-01-15T01:59:36;33.83;;;11.10;;
4642;SDS011;2334;48.710;9.622;2024-01-15T02:02:05;37.27;;;12.07;;
4642;SDS011;2334;48.710;9.622;2024-01-15T02:04:33;38.97;;;11.07;;
4642;SDS011;2334;48.710;9.622;2024-01-15T02:07:01;38.50;;;11.40;;
4642;SDS011;2334;48.710;9.622;2024-01-15T02:09:29;23.57;;;10.43;;
4642;SDS011;2334;48.710;9.622;2024-01-15T02:11:57;33.93;;;11.00;;
4642;SDS011;2334;48.710;9.622;2024-01-15T02:14:24;38.03;;;12.23;;
4642;SDS011;2334;48.710;9.622;2024-01-15T02:16:51;38.53;;;11.27;;
4642;SDS011;2334;48.710;9.622;2024-01-15T02:19:19;37.13;;;12.37;;
4642;SDS011;2334;48.710;9.622;2024-01-15T02:21:46;33.30;;;10.87;;
4642;SDS011;2334;48.710;9.622;2024-01-15T02:24:14;30.80;;;11.63;;
4642;SDS011;2334;48.710;9.622;2024-01-15T02:26:41;31.70;;;10.73;;
4642;SDS011;2334;48.710;9.622;2024-01-15T02:29:08;33.40;;;12.27;;
4642;SDS011;2334;48.710;9.622;2024-01-15T02:31:36;36.23;;;11.87;;
4642;SDS011;2334;48.710;9.622;2024-01-15T02:34:03;22.90;;;10.40;;
4642;SDS011;2334;48.710;9.622;2024-01-15T02:36:30;29.47;;;10.40;;
4642;SDS011;2334;48.710;9.622;2024-01-15T02:38:57;17.87;;;8.07;;
4642;SDS011;2334;48.710;9.622;2024-01-15T02:41:25;22.27;;;8.50;;
4642;SDS011;2334;48.710;9.622;2024-01-15T02:43:52;22.33;;;9.10;;
4642;SDS011;2334;48.710;9.622;2024-01-15T02:46:19;19.00;;;6.97;;
4642;SDS011;2334;48.710;9.622;2024-01-15T02:48:46;20.30;;;8.50;;
4642;SDS011;2334;48.710;9.622;2024-01-15T02:51:13;14.30;;;5.10;;
4642;SDS011;2334;48.710;9.622;2024-01-15T02:53:39;19.33;;;5.53;;
4642;SDS011;2334;48.710;9.622;2024-01-15T02:56:06;15.43;;;5.83;;
4642;SDS011;2334;48.710;9.622;2024-01-15T02:58:35;10.30;;;4.70;;
4642;SDS011;2334;48.710;9.622;2024-01-15T03:01:02;14.17;;;5.63;;
4642;SDS011;2334;48.710;9.622;2024-01-15T03:03:29;16.03;;;6.67;;
4642;SDS011;2334;48.710;9.622;2024-01-15T03:05:58;15.13;;;6.07;;
4642;SDS011;2334;48.710;9.622;2024-01-15T03:08:25;20.37;;;5.20;;
4642;SDS011;2334;48.710;9.622;2024-01-15T03:10:51;19.87;;;5.37;;
4642;SDS011;2334;48.710;9.622;2024-01-15T03:13:18;13.80;;;6.60;;
4642;SDS011;2334;48.710;9.622;2024-01-15T03:15:47;10.77;;;4.43;;
4642;SDS011;2334;48.710;9.622;2024-01-15T03:18:13;14.77;;;5.50;;
4642;SDS011;2334;48.710;9.622;2024-01-15T03:20:40;16.23;;;5.90;;
4642;SDS011;2334;48.710;9.622;2024-01-15T03:23:07;12.73;;;4.77;;
4642;SDS011;2334;48.710;9.622;2024-01-15T03:25:34;10.60;;;4.33;;
4642;SDS011;2334;48.710;9.622;2024-01-15T03:28:01;11.90;;;5.17;;
4642;SDS011;2334;48.710;9.622;2024-01-15T03:30:28;15.07;;;4.93;;
4642;SDS011;2334;48.710;9.622;2024-01-15T03:32:56;18.03;;;5.70;;
4642;SDS011;2334;48.710;9.622;2024-01-15T03:35:23;9.47;;;4.17;;
4642;SDS011;2334;48.710;9.622;2024-01-15T03:37:54;12.80;;;5.93;;
4642;SDS011;2334;48.710;9.622;2024-01-15T03:40:21;8.77;;;4.30;;
4642;SDS011;2334;48.710;9.622;2024-01-15T03:42:48;10.90;;;4.97;;
4642;SDS011;2334;48.710;9.622;2024-01-15T03:45:15;12.83;;;4.70;;
4642;SDS011;2334;48.710;9.622;2024-01-15T03:47:42;16.40;;;5.97;;
4642;SDS011;2334;48.710;9.622;2024-01-15T03:50:10;9.30;;;4.63;;
4642;SDS011;2334;48.710;9.622;2024-01-15T03:52:37;20.83;;;5.70;;
4642;SDS011;2334;48.710;9.622;2024-01-15T03:55:04;15.30;;;5.83;;
4642;SDS011;2334;48.710;9.622;2024-01-15T03:57:31;9.00;;;4.87;;
4642;SDS011;2334;48.710;9.622;2024-01-15T03:59:58;8.37;;;3.97;;
4642;SDS011;2334;48.710;9.622;2024-01-15T04:02:25;13.83;;;5.10;;
4642;SDS011;2334;48.710;9.622;2024-01-15T04:04:52;14.07;;;5.47;;
4642;SDS011;2334;48.710;9.622;2024-01-15T04:07:20;16.00;;;4.83;;
4642;SDS011;2334;48.710;9.622;2024-01-15T04:09:47;16.00;;;6.40;;
4642;SDS011;2334;48.710;9.622;2024-01-15T04:12:14;9.50;;;4.77;;
4642;SDS011;2334;48.710;9.622;2024-01-15T04:14:41;8.67;;;4.37;;
4642;SDS011;2334;48.710;9.622;2024-01-15T04:17:07;10.07;;;4.43;;
4642;SDS011;2334;48.710;9.622;2024-01-15T04:19:34;9.03;;;4.40;;
4642;SDS011;2334;48.710;9.622;2024-01-15T04:22:01;12.50;;;5.30;;
4642;SDS011;2334;48.710;9.622;2024-01-15T04:24:30;19.10;;;6.50;;
4642;SDS011;2334;48.710;9.622;2024-01-15T04:26:58;9.97;;;4.50;;
4642;SDS011;2334;48.710;9.622;2024-01-15T04:29:24;18.50;;;6.37;;
4642;SDS011;2334;48.710;9.622;2024-01-15T04:31:51;13.57;;;5.33;;
4642;SDS011;2334;48.710;9.622;2024-01-15T04:34:19;13.00;;;5.10;;
4642;SDS011;2334;48.710;9.622;2024-01-15T04:36:46;14.97;;;5.53;;
4642;SDS011;2334;48.710;9.622;2024-01-15T04:39:12;18.40;;;5.80;;
4642;SDS011;2334;48.710;9.622;2024-01-15T04:41:41;10.70;;;5.10;;
4642;SDS011;2334;48.710;9.622;2024-01-15T04:44:07;9.17;;;5.60;;
4642;SDS011;2334;48.710;9.622;2024-01-15T04:46:34;13.07;;;5.53;;
4642;SDS011;2334;48.710;9.622;2024-01-15T04:49:01;17.13;;;6.47;;
4642;SDS011;2334;48.710;9.622;2024-01-15T04:51:28;14.67;;;5.43;;
4642;SDS011;2334;48.710;9.622;2024-01-15T04:53:55;11.17;;;5.30;;
4642;SDS011;2334;48.710;9.622;2024-01-15T04:56:22;10.23;;;4.53;;
4642;SDS011;2334;48.710;9.622;2024-01-15T04:58:50;12.03;;;5.43;;
4642;SDS011;2334;48.710;9.622;2024-01-15T05:01:17;15.80;;;5.07;;
4642;SDS011;2334;48.710;9.622;2024-01-15T05:03:44;12.77;;;5.87;;
4642;SDS011;2334;48.710;9.622;2024-01-15T05:06:11;10.90;;;5.10;;
4642;SDS011;2334;48.710;9.622;2024-01-15T05:08:37;8.43;;;4.20;;
4642;SDS011;2334;48.710;9.622;2024-01-15T05:11:04;10.50;;;4.70;;
4642;SDS011;2334;48.710;9.622;2024-01-15T05:13:31;9.27;;;6.47;;
4642;SDS011;2334;48.710;9.622;2024-01-15T05:15:59;17.63;;;5.23;;
4642;SDS011;2334;48.710;9.622;2024-01-15T05:18:26;9.13;;;4.30;;
4642;SDS011;2334;48.710;9.622;2024-01-15T05:20:53;14.80;;;6.20;;
4642;SDS011;2334;48.710;9.622;2024-01-15T05:23:20;9.77;;;4.40;;
4642;SDS011;2334;48.710;9.622;2024-01-15T05:25:47;9.50;;;5.50;;
4642;SDS011;2334;48.710;9.622;2024-01-15T05:28:14;9.80;;;4.50;;
4642;SDS011;2334;48.710;9.622;2024-01-15T05:30:41;9.83;;;4.40;;
4642;SDS011;2334;48.710;9.622;2024-01-15T05:33:10;12.43;;;5.10;;
4642;SDS011;2334;48.710;9.622;2024-01-15T05:35:42;13.33;;;5.03;;
4642;SDS011;2334;48.710;9.622;2024-01-15T05:38:09;12.17;;;5.90;;
4642;SDS011;2334;48.710;9.622;2024-01-15T05:40:36;13.80;;;5.27;;
4642;SDS011;2334;48.710;9.622;2024-01-15T05:43:05;11.63;;;4.90;;
4642;SDS011;2334;48.710;9.622;2024-01-15T05:45:33;12.50;;;5.60;;
4642;SDS011;2334;48.710;9.622;2024-01-15T05:48:01;16.77;;;6.20;;
4642;SDS011;2334;48.710;9.622;2024-01-15T05:50:29;20.83;;;6.00;;
4642;SDS011;2334;48.710;9.622;2024-01-15T05:52:56;16.07;;;5.40;;
4642;SDS011;2334;48.710;9.622;2024-01-15T05:55:22;15.97;;;6.10;;
4642;SDS011;2334;48.710;9.622;2024-01-15T05:57:49;13.83;;;5.90;;
4642;SDS011;2334;48.710;9.622;2024-01-15T06:00:16;12.10;;;6.53;;
4642;SDS011;2334;48.710;9.622;2024-01-15T06:02:43;10.83;;;5.47;;
4642;SDS011;2334;48.710;9.622;2024-01-15T06:05:10;14.77;;;5.83;;
4642;SDS011;2334;48.710;9.622;2024-01-15T06:07:39;21.27;;;7.80;;
4642;SDS011;2334;48.710;9.622;2024-01-15T06:10:06;18.43;;;7.27;;
4642;SDS011;2334;48.710;9.622;2024-01-15T06:12:33;15.80;;;7.57;;
4642;SDS011;2334;48.710;9.622;2024-01-15T06:15:00;17.17;;;6.47;;
4642;SDS011;2334;48.710;9.622;2024-01-15T06:17:27;27.07;;;6.50;;
4642;SDS011;2334;48.710;9.622;2024-01-15T06:19:54;14.83;;;5.90;;
4642;SDS011;2334;48.710;9.622;2024-01-15T06:22:22;18.73;;;6.33;;
4642;SDS011;2334;48.710;9.622;2024-01-15T06:24:50;12.60;;;6.03;;
4642;SDS011;2334;48.710;9.622;2024-01-15T06:27:17;17.53;;;5.40;;
4642;SDS011;2334;48.710;9.622;2024-01-15T06:29:44;19.90;;;9.20;;
4642;SDS011;2334;48.710;9.622;2024-01-15T06:32:13;14.30;;;8.47;;
4642;SDS011;2334;48.710;9.622;2024-01-15T06:34:40;9.90;;;5.03;;
4642;SDS011;2334;48.710;9.622;2024-01-15T06:37:07;10.37;;;6.30;;
4642;SDS011;2334;48.710;9.622;2024-01-15T06:39:33;14.17;;;8.00;;
4642;SDS011;2334;48.710;9.622;2024-01-15T06:42:02;12.87;;;6.20;;
4642;SDS011;2334;48.710;9.622;2024-01-15T06:44:30;12.50;;;5.57;;
4642;SDS011;2334;48.710;9.622;2024-01-15T06:46:56;14.37;;;5.40;;
4642;SDS011;2334;48.710;9.622;2024-01-15T06:49:27;76.13;;;28.17;;
4642;SDS011;2334;48.710;9.622;2024-01-15T06:51:54;30.07;;;13.63;;
4642;SDS011;2334;48.710;9.622;2024-01-15T06:54:21;40.73;;;16.03;;
4642;SDS011;2334;48.710;9.622;2024-01-15T06:56:48;15.40;;;7.70;;
4642;SDS011;2334;48.710;9.622;2024-01-15T06:59:17;13.73;;;6.10;;
4642;SDS011;2334;48.710;9.622;2024-01-15T07:01:43;10.00;;;4.80;;
4642;SDS011;2334;48.710;9.622;2024-01-15T07:04:10;15.00;;;6.60;;
4642;SDS011;2334;48.710;9.622;2024-01-15T07:06:37;9.10;;;5.17;;
4642;SDS011;2334;48.710;9.622;2024-01-15T07:09:04;15.93;;;5.93;;
4642;SDS011;2334;48.710;9.622;2024-01-15T07:11:31;9.60;;;5.13;;
4642;SDS011;2334;48.710;9.622;2024-01-15T07:13:58;16.20;;;5.10;;
4642;SDS011;2334;48.710;9.622;2024-01-15T07:16:26;14.73;;;5.63;;
4642;SDS011;2334;48.710;9.622;2024-01-15T07:18:53;11.27;;;4.97;;
4642;SDS011;2334;48.710;9.622;2024-01-15T07:21:20;17.50;;;6.07;;
4642;SDS011;2334;48.710;9.622;2024-01-15T07:23:47;13.37;;;6.00;;
4642;SDS011;2334;48.710;9.622;2024-01-15T07:26:13;11.60;;;5.70;;
4642;SDS011;2334;48.710;9.622;2024-01-15T07:28:40;13.77;;;5.53;;
4642;SDS011;2334;48.710;9.622;2024-01-15T07:31:08;15.10;;;6.07;;
4642;SDS011;2334;48.710;9.622;2024-01-15T07:33:36;10.17;;;6.60;;
4642;SDS011;2334;48.710;9.622;2024-01-15T07:36:03;9.60;;;5.13;;
4642;SDS011;2334;48.710;9.622;2024-01-15T07:38:31;14.20;;;6.40;;
4642;SDS011;2334;48.710;9.622;2024-01-15T07:40:58;17.73;;;6.27;;
4642;SDS011;2334;48.710;9.622;2024-01-15T07:43:25;9.73;;;4.37;;
4642;SDS011;2334;48.710;9.622;2024-01-15T07:45:53;11.03;;;5.50;;
4642;SDS011;2334;48.710;9.622;2024-01-15T07:48:19;12.23;;;5.53;;
4642;SDS011;2334;48.710;9.622;2024-01-15T07:50:48;41.00;;;16.50;;
4642;SDS011;2334;48.710;9.622;2024-01-15T07:53:15;10.53;;;5.23;;
4642;SDS011;2334;48.710;9.622;2024-01-15T07:55:42;17.60;;;5.43;;
4642;SDS011;2334;48.710;9.622;2024-01-15T07:58:11;13.70;;;5.30;;
4642;SDS011;2334;48.710;9.622;2024-01-15T08:00:37;13.97;;;5.60;;
4642;SDS011;2334;48.710;9.622;2024-01-15T08:03:04;9.43;;;4.43;;
4642;SDS011;2334;48.710;9.622;2024-01-15T08:05:31;11.97;;;6.03;;
4642;SDS011;2334;48.710;9.622;2024-01-15T08:08:00;8.90;;;4.53;;
4642;SDS011;2334;48.710;9.622;2024-01-15T08:10:26;10.50;;;4.10;;
4642;SDS011;2334;48.710;9.622;2024-01-15T08:12:54;9.90;;;4.93;;
4642;SDS011;2334;48.710;9.622;2024-01-15T08:15:20;13.00;;;4.83;;
4642;SDS011;2334;48.710;9.622;2024-01-15T08:17:47;10.50;;;5.20;;
4642;SDS011;2334;48.710;9.622;2024-01-15T08:20:15;9.60;;;4.73;;
4642;SDS011;2334;48.710;9.622;2024-01-15T08:22:42;5.53;;;4.10;;
4642;SDS011;2334;48.710;9.622;2024-01-15T08:25:10;11.60;;;5.43;;
4642;SDS011;2334;48.710;9.622;2024-01-15T08:27:38;10.13;;;4.93;;
4642;SDS011;2334;48.710;9.622;2024-01-15T08:30:05;10.30;;;4.53;;
4642;SDS011;2334;48.710;9.622;2024-01-15T08:32:33;14.40;;;4.87;;
4642;SDS011;2334;48.710;9.622;2024-01-15T08:35:02;10.77;;;4.33;;
4642;SDS011;2334;48.710;9.622;2024-01-15T08:37:29;12.73;;;5.00;;
4642;SDS011;2334;48.710;9.622;2024-01-15T08:39:56;12.40;;;5.13;;
4642;SDS011;2334;48.710;9.622;2024-01-15T08:42:24;11.53;;;5.80;;
4642;SDS011;2334;48.710;9.622;2024-01-15T08:44:51;15.67;;;6.73;;
4642;SDS011;2334;48.710;9.622;2024-01-15T08:47:18;12.90;;;5.13;;
4642;SDS011;2334;48.710;9.622;2024-01-15T08:49:45;11.40;;;5.03;;
4642;SDS011;2334;48.710;9.622;2024-01-15T08:52:12;17.83;;;7.60;;
4642;SDS011;2334;48.710;9.622;2024-01-15T08:54:39;12.90;;;5.07;;
4642;SDS011;2334;48.710;9.622;2024-01-15T08:57:06;14.00;;;6.20;;
4642;SDS011;2334;48.710;9.622;2024-01-15T08:59:35;19.50;;;6.27;;
4642;SDS011;2334;48.710;9.622;2024-01-15T09:02:01;14.97;;;6.30;;
4642;SDS011;2334;48.710;9.622;2024-01-15T09:04:28;34.07;;;10.43;;
4642;SDS011;2334;48.710;9.622;2024-01-15T09:06:55;14.70;;;5.37;;
4642;SDS011;2334;48.710;9.622;2024-01-15T09:09:22;10.43;;;4.73;;
4642;SDS011;2334;48.710;9.622;2024-01-15T09:11:49;8.97;;;4.67;;
4642;SDS011;2334;48.710;9.622;2024-01-15T09:14:17;11.47;;;4.33;;
4642;SDS011;2334;48.710;9.622;2024-01-15T09:16:45;18.33;;;4.50;;
4642;SDS011;2334;48.710;9.622;2024-01-15T09:19:12;5.73;;;3.80;;
4642;SDS011;2334;48.710;9.622;2024-01-15T09:21:39;7.77;;;4.70;;
4642;SDS011;2334;48.710;9.622;2024-01-15T09:24:06;8.70;;;4.27;;
4642;SDS011;2334;48.710;9.622;2024-01-15T09:26:33;7.00;;;4.07;;
4642;SDS011;2334;48.710;9.622;2024-01-15T09:29:00;8.63;;;3.77;;
4642;SDS011;2334;48.710;9.622;2024-01-15T09:31:28;8.07;;;4.57;;
4642;SDS011;2334;48.710;9.622;2024-01-15T09:33:56;9.37;;;4.70;;
4642;SDS011;2334;48.710;9.622;2024-01-15T09:36:25;8.80;;;4.10;;
4642;SDS011;2334;48.710;9.622;2024-01-15T09:38:52;8.37;;;3.90;;
4642;SDS011;2334;48.710;9.622;2024-01-15T09:41:19;10.83;;;4.13;;
4642;SDS011;2334;48.710;9.622;2024-01-15T09:43:46;6.80;;;3.77;;
4642;SDS011;2334;48.710;9.622;2024-01-15T09:46:14;12.73;;;4.23;;
4642;SDS011;2334;48.710;9.622;2024-01-15T09:48:42;14.50;;;5.40;;
4642;SDS011;2334;48.710;9.622;2024-01-15T09:51:10;8.63;;;4.80;;
4642;SDS011;2334;48.710;9.622;2024-01-15T09:53:37;6.83;;;4.90;;
4642;SDS011;2334;48.710;9.622;2024-01-15T09:56:07;11.17;;;4.63;;
4642;SDS011;2334;48.710;9.622;2024-01-15T09:58:37;12.10;;;3.63;;
4642;SDS011;2334;48.710;9.622;2024-01-15T10:01:06;7.23;;;4.23;;
4642;SDS011;2334;48.710;9.622;2024-01-15T10:03:34;45.43;;;13.40;;
4642;SDS011;2334;48.710;9.622;2024-01-15T10:06:03;11.47;;;4.33;;
4642;SDS011;2334;48.710;9.622;2024-01-15T10:08:32;8.30;;;3.73;;
4642;SDS011;2334;48.710;9.622;2024-01-15T10:10:59;8.27;;;3.57;;
4642;SDS011;2334;48.710;9.622;2024-01-15T10:13:26;5.60;;;3.00;;
4642;SDS011;2334;48.710;9.622;2024-01-15T10:15:53;6.47;;;3.23;;
4642;SDS011;2334;48.710;9.622;2024-01-15T10:18:20;2.93;;;2.67;;
4642;SDS011;2334;48.710;9.622;2024-01-15T10:20:47;4.17;;;2.30;;
4642;SDS011;2334;48.710;9.622;2024-01-15T10:23:14;9.37;;;3.00;;
4642;SDS011;2334;48.710;9.622;2024-01-15T10:25:43;4.70;;;3.30;;
4642;SDS011;2334;48.710;9.622;2024-01-15T10:28:10;6.03;;;2.80;;
4642;SDS011;2334;48.710;9.622;2024-01-15T10:30:36;3.93;;;2.63;;
4642;SDS011;2334;48.710;9.622;2024-01-15T10:33:04;8.33;;;3.00;;
4642;SDS011;2334;48.710;9.622;2024-01-15T10:35:31;3.37;;;2.30;;
4642;SDS011;2334;48.710;9.622;2024-01-15T10:37:59;4.90;;;2.97;;
4642;SDS011;2334;48.710;9.622;2024-01-15T10:40:27;2.90;;;2.20;;
4642;SDS011;2334;48.710;9.622;2024-01-15T10:42:55;5.93;;;2.40;;
4642;SDS011;2334;48.710;9.622;2024-01-15T10:45:22;3.23;;;2.37;;
4642;SDS011;2334;48.710;9.622;2024-01-15T10:47:50;1.90;;;1.67;;
4642;SDS011;2334;48.710;9.622;2024-01-15T10:50:16;3.37;;;2.10;;
4642;SDS011;2334;48.710;9.622;2024-01-15T10:52:43;2.37;;;2.03;;
4642;SDS011;2334;48.710;9.622;2024-01-15T10:55:10;8.50;;;3.60;;
4642;SDS011;2334;48.710;9.622;2024-01-15T10:57:37;3.83;;;2.17;;
4642;SDS011;2334;48.710;9.622;2024-01-15T11:00:07;7.37;;;2.83;;
4642;SDS011;2334;48.710;9.622;2024-01-15T11:02:39;3.60;;;2.00;;
4642;SDS011;2334;48.710;9.622;2024-01-15T11:05:08;2.50;;;2.07;;
4642;SDS011;2334;48.710;9.622;2024-01-15T11:07:35;2.93;;;2.20;;
4642;SDS011;2334;48.710;9.622;2024-01-15T11:10:03;3.33;;;1.97;;
4642;SDS011;2334;48.710;9.622;2024-01-15T11:12:30;7.10;;;2.87;;
4642;SDS011;2334;48.710;9.622;2024-01-15T11:15:01;3.83;;;2.67;;
4642;SDS011;2334;48.710;9.622;2024-01-15T11:17:31;3.23;;;1.90;;
4642;SDS011;2334;48.710;9.622;2024-01-15T11:20:25;3.37;;;2.77;;
4642;SDS011;2334;48.710;9.622;2024-01-15T11:22:52;3.27;;;2.10;;
4642;SDS011;2334;48.710;9.622;2024-01-15T11:25:19;9.63;;;3.17;;
4642;SDS011;2334;48.710;9.622;2024-01-15T11:27:46;4.27;;;1.90;;
4642;SDS011;2334;48.710;9.622;2024-01-15T11:30:16;3.77;;;2.17;;
4642;SDS011;2334;48.710;9.622;2024-01-15T11:32:46;2.80;;;1.90;;
4642;SDS011;2334;48.710;9.622;2024-01-15T11:35:13;3.37;;;2.50;;
4642;SDS011;2334;48.710;9.622;2024-01-15T11:37:56;3.30;;;1.80;;
4642;SDS011;2334;48.710;9.622;2024-01-15T11:40:36;3.50;;;2.20;;
4642;SDS011;2334;48.710;9.622;2024-01-15T11:43:04;2.00;;;1.70;;
4642;SDS011;2334;48.710;9.622;2024-01-15T11:45:34;2.20;;;1.63;;
4642;SDS011;2334;48.710;9.622;2024-01-15T11:48:12;8.63;;;1.43;;
4642;SDS011;2334;48.710;9.622;2024-01-15T11:50:40;1.50;;;1.40;;
4642;SDS011;2334;48.710;9.622;2024-01-15T11:53:16;2.80;;;2.00;;
4642;SDS011;2334;48.710;9.622;2024-01-15T11:55:46;2.67;;;1.97;;
4642;SDS011;2334;48.710;9.622;2024-01-15T11:58:13;6.77;;;2.90;;
4642;SDS011;2334;48.710;9.622;2024-01-15T12:00:42;34.27;;;11.00;;
4642;SDS011;2334;48.710;9.622;2024-01-15T12:03:11;3.40;;;2.47;;
4642;SDS011;2334;48.710;9.622;2024-01-15T12:05:39;3.70;;;3.40;;
4642;SDS011;2334;48.710;9.622;2024-01-15T12:08:08;3.03;;;2.37;;
4642;SDS011;2334;48.710;9.622;2024-01-15T12:10:36;4.30;;;1.87;;
4642;SDS011;2334;48.710;9.622;2024-01-15T12:13:06;3.83;;;2.13;;
4642;SDS011;2334;48.710;9.622;2024-01-15T12:15:36;4.40;;;2.23;;
4642;SDS011;2334;48.710;9.622;2024-01-15T12:18:07;5.73;;;2.40;;
4642;SDS011;2334;48.710;9.622;2024-01-15T12:20:36;2.43;;;2.00;;
4642;SDS011;2334;48.710;9.622;2024-01-15T12:23:03;3.90;;;2.30;;
4642;SDS011;2334;48.710;9.622;2024-01-15T12:25:31;6.20;;;2.30;;
4642;SDS011;2334;48.710;9.622;2024-01-15T12:27:59;4.23;;;2.43;;
4642;SDS011;2334;48.710;9.622;2024-01-15T12:30:27;5.13;;;2.40;;
4642;SDS011;2334;48.710;9.622;2024-01-15T12:32:54;4.43;;;2.53;;
4642;SDS011;2334;48.710;9.622;2024-01-15T12:35:23;5.37;;;1.97;;
4642;SDS011;2334;48.710;9.622;2024-01-15T12:37:53;3.60;;;2.00;;
4642;SDS011;2334;48.710;9.622;2024-01-15T12:40:21;4.90;;;2.40;;
4642;SDS011;2334;48.710;9.622;2024-01-15T12:42:49;3.27;;;2.33;;
4642;SDS011;2334;48.710;9.622;2024-01-15T12:45:18;3.23;;;2.70;;
4642;SDS011;2334;48.710;9.622;2024-01-15T12:47:45;6.17;;;2.00;;
4642;SDS011;2334;48.710;9.622;2024-01-15T12:50:12;6.20;;;1.93;;
4642;SDS011;2334;48.710;9.622;2024-01-15T12:52:40;3.93;;;2.30;;
4642;SDS011;2334;48.710;9.622;2024-01-15T12:55:09;3.20;;;2.20;;
4642;SDS011;2334;48.710;9.622;2024-01-15T12:57:36;3.47;;;2.87;;
4642;SDS011;2334;48.710;9.622;2024-01-15T13:00:04;3.60;;;2.03;;
4642;SDS011;2334;48.710;9.622;2024-01-15T13:02:36;4.23;;;2.87;;
4642;SDS011;2334;48.710;9.622;2024-01-15T13:05:06;4.30;;;3.00;;
4642;SDS011;2334;48.710;9.622;2024-01-15T13:07:34;3.70;;;2.40;;
4642;SDS011;2334;48.710;9.622;2024-01-15T13:10:02;4.07;;;2.77;;
4642;SDS011;2334;48.710;9.622;2024-01-15T13:12:30;6.30;;;3.20;;
4642;SDS011;2334;48.710;9.622;2024-01-15T13:14:58;5.90;;;3.23;;
4642;SDS011;2334;48.710;9.622;2024-01-15T13:17:25;6.00;;;3.90;;
4642;SDS011;2334;48.710;9.622;2024-01-15T13:19:52;5.33;;;3.00;;
4642;SDS011;2334;48.710;9.622;2024-01-15T13:22:18;5.90;;;3.03;;
4642;SDS011;2334;48.710;9.622;2024-01-15T13:24:45;7.70;;;2.90;;
4642;SDS011;2334;48.710;9.622;2024-01-15T13:27:12;13.77;;;4.00;;
4642;SDS011;2334;48.710;9.622;2024-01-15T13:29:40;3.80;;;2.80;;
4642;SDS011;2334;48.710;9.622;2024-01-15T13:32:08;8.10;;;3.30;;
4642;SDS011;2334;48.710;9.622;2024-01-15T13:34:38;7.43;;;3.17;;
4642;SDS011;2334;48.710;9.622;2024-01-15T13:37:06;4.30;;;2.60;;
4642;SDS011;2334;48.710;9.622;2024-01-15T13:39:34;8.00;;;3.33;;
4642;SDS011;2334;48.710;9.622;2024-01-15T13:42:02;5.83;;;3.77;;
4642;SDS011;2334;48.710;9.622;2024-01-15T13:44:29;4.77;;;3.13;;
4642;SDS011;2334;48.710;9.622;2024-01-15T13:46:57;6.73;;;3.63;;
4642;SDS011;2334;48.710;9.622;2024-01-15T13:49:24;5.10;;;3.43;;
4642;SDS011;2334;48.710;9.622;2024-01-15T13:51:51;4.03;;;3.07;;
4642;SDS011;2334;48.710;9.622;2024-01-15T13:54:18;5.37;;;2.97;;
4642;SDS011;2334;48.710;9.622;2024-01-15T13:56:45;8.57;;;3.03;;
4642;SDS011;2334;48.710;9.622;2024-01-15T13:59:13;4.07;;;3.27;;
4642;SDS011;2334;48.710;9.622;2024-01-15T14:01:40;5.33;;;3.60;;
4642;SDS011;2334;48.710;9.622;2024-01-15T14:04:09;5.90;;;4.03;;
4642;SDS011;2334;48.710;9.622;2024-01-15T14:06:36;5.70;;;2.90;;
4642;SDS011;2334;48.710;9.622;2024-01-15T14:09:04;5.40;;;3.30;;
4642;SDS011;2334;48.710;9.622;2024-01-15T14:11:35;7.60;;;3.70;;
4642;SDS011;2334;48.710;9.622;2024-01-15T14:14:01;5.30;;;3.60;;
4642;SDS011;2334;48.710;9.622;2024-01-15T14:16:28;6.27;;;3.50;;
4642;SDS011;2334;48.710;9.622;2024-01-15T14:18:55;4.50;;;3.20;;
4642;SDS011;2334;48.710;9.622;2024-01-15T14:21:23;7.53;;;3.73;;
4642;SDS011;2334;48.710;9.622;2024-01-15T14:23:50;7.80;;;3.40;;
4642;SDS011;2334;48.710;9.622;2024-01-15T14:26:17;4.60;;;2.80;;
4642;SDS011;2334;48.710;9.622;2024-01-15T14:28:44;8.73;;;4.10;;
4642;SDS011;2334;48.710;9.622;2024-01-15T14:31:11;11.03;;;5.27;;
4642;SDS011;2334;48.710;9.622;2024-01-15T14:33:38;12.60;;;4.10;;
4642;SDS011;2334;48.710;9.622;2024-01-15T14:36:05;6.57;;;3.80;;
4642;SDS011;2334;48.710;9.622;2024-01-15T14:38:34;12.33;;;4.03;;
4642;SDS011;2334;48.710;9.622;2024-01-15T14:41:01;4.67;;;3.80;;
4642;SDS011;2334;48.710;9.622;2024-01-15T14:43:27;9.87;;;3.73;;
4642;SDS011;2334;48.710;9.622;2024-01-15T14:45:54;6.90;;;4.60;;
4642;SDS011;2334;48.710;9.622;2024-01-15T14:48:21;6.00;;;4.17;;
4642;SDS011;2334;48.710;9.622;2024-01-15T14:50:48;7.93;;;3.97;;
4642;SDS011;2334;48.710;9.622;2024-01-15T14:53:15;9.47;;;5.37;;
4642;SDS011;2334;48.710;9.622;2024-01-15T14:55:44;6.60;;;4.00;;
4642;SDS011;2334;48.710;9.622;2024-01-15T14:58:11;9.07;;;4.00;;
4642;SDS011;2334;48.710;9.622;2024-01-15T15:00:38;11.43;;;4.47;;
4642;SDS011;2334;48.710;9.622;2024-01-15T15:03:05;7.53;;;3.60;;
4642;SDS011;2334;48.710;9.622;2024-01-15T15:05:32;4.10;;;3.17;;
4642;SDS011;2334;48.710;9.622;2024-01-15T15:07:59;9.13;;;4.20;;